Terminal Aerodrome Forecast
Issued by NWS

Home | Current Version | Previous Version | Text Only | Print | Product List | Glossary On
Versions: 1 2 3 4 5 6 7 8 9 10 11 12 13 14 15
000
FTUS42 KILM 312300
TAFCRE
TAF
KCRE 312325Z 0100/0124 08012KT P6SM VCSH BKN025 BKN050
     FM010400 08007KT 6SM -SHRA SCT020 OVC050
      TEMPO 0106/0110 3SM SHRA BKN020
     FM011700 12008KT P6SM VCTS SCT025 BKN040CB=

USA.gov is the U.S. government's official web portal to all federal, state and local government web resources and services.